Time;durP1;ratioP1;P1;durP2;ratioP2;P2;SDS_P1;SDS_P2;PMS_P1;PMS_P2;Temp;Humidity;BMP_temperature;BMP_pressure;BME280_temperature;BME280_humidity;BME280_pressure;Samples;Min_cycle;Max_cycle;Signal;HPM_P1;HPM_P2
2022/07/06 00:01:46;;;;;;;5.78;1.92;;;15.80;99.90;;;;;;5052819;28;20040;-68
2022/07/06 00:04:12;;;;;;;4.80;1.75;;;15.80;99.90;;;;;;5052855;28;20024;-68
2022/07/06 00:06:38;;;;;;;4.82;1.40;;;15.80;99.90;;;;;;5052572;28;20033;-68
2022/07/06 00:09:05;;;;;;;3.65;1.08;;;15.70;99.90;;;;;;5067027;28;20035;-68
2022/07/06 00:11:31;;;;;;;4.88;1.65;;;15.70;99.90;;;;;;5072309;28;20028;-67
2022/07/06 00:13:57;;;;;;;4.60;1.40;;;15.60;99.90;;;;;;5073045;28;20031;-68
2022/07/06 00:16:23;;;;;;;5.10;1.48;;;15.60;99.90;;;;;;5072114;28;20029;-68
2022/07/06 00:18:49;;;;;;;3.45;1.75;;;15.60;99.90;;;;;;5073009;28;20025;-68
2022/07/06 00:21:14;;;;;;;2.10;1.48;;;15.60;99.90;;;;;;5071742;28;20449;-68
2022/07/06 00:23:40;;;;;;;8.13;1.80;;;15.50;99.90;;;;;;5052492;28;20029;-68
2022/07/06 00:26:06;;;;;;;3.70;1.85;;;15.40;99.90;;;;;;5052345;28;20396;-68
2022/07/06 00:28:31;;;;;;;9.43;1.90;;;15.40;99.90;;;;;;5052353;28;20033;-68
2022/07/06 00:30:57;;;;;;;4.63;1.90;;;15.30;99.90;;;;;;5051965;28;20021;-69
2022/07/06 00:33:22;;;;;;;4.00;2.05;;;15.30;99.90;;;;;;5052438;28;20029;-68
2022/07/06 00:35:48;;;;;;;3.55;2.10;;;15.30;99.90;;;;;;5052305;28;20017;-68
2022/07/06 00:38:14;;;;;;;6.03;2.13;;;15.20;99.90;;;;;;5071046;28;20032;-68
2022/07/06 00:40:40;;;;;;;6.50;1.88;;;15.20;99.90;;;;;;5072149;28;20024;-68
2022/07/06 00:43:05;;;;;;;6.10;2.28;;;15.20;99.90;;;;;;5072511;28;20056;-68
2022/07/06 00:45:31;;;;;;;12.35;1.80;;;15.20;99.90;;;;;;5071478;28;20052;-68
2022/07/06 00:47:56;;;;;;;5.40;2.20;;;15.10;99.90;;;;;;5072157;28;20025;-69
2022/07/06 00:50:23;;;;;;;6.00;2.60;;;15.10;99.90;;;;;;5067929;28;20021;-68
2022/07/06 00:52:51;;;;;;;3.03;2.10;;;15.00;99.90;;;;;;5071997;28;20028;-68
2022/07/06 00:55:22;;;;;;;4.65;2.10;;;15.00;99.90;;;;;;5069735;28;20413;-68
2022/07/06 00:57:48;;;;;;;4.35;2.08;;;15.00;99.90;;;;;;5071922;28;20365;-68
2022/07/06 01:00:16;;;;;;;7.15;1.90;;;14.90;99.90;;;;;;5071820;28;20032;-68
2022/07/06 01:02:43;;;;;;;2.13;1.70;;;14.90;99.90;;;;;;5053792;28;20024;-68
2022/07/06 01:05:10;;;;;;;3.47;1.80;;;14.90;99.90;;;;;;5071110;28;20078;-68
2022/07/06 01:07:37;;;;;;;2.53;1.88;;;14.80;99.90;;;;;;5071838;28;20025;-68
2022/07/06 01:10:07;;;;;;;4.45;1.95;;;14.80;99.90;;;;;;5033742;28;20383;-68
2022/07/06 01:12:36;;;;;;;3.65;1.83;;;14.70;99.90;;;;;;5032421;28;20362;-68
2022/07/06 01:15:04;;;;;;;5.70;1.73;;;14.70;99.90;;;;;;5051444;28;20025;-68
2022/07/06 01:17:31;;;;;;;4.47;2.05;;;14.70;99.90;;;;;;5051863;28;20025;-68
2022/07/06 01:19:57;;;;;;;4.43;2.13;;;14.70;99.90;;;;;;5051425;28;20021;-68
2022/07/06 01:22:22;;;;;;;5.32;1.95;;;14.60;99.90;;;;;;5051415;28;20032;-68
2022/07/06 01:24:48;;;;;;;8.23;2.22;;;14.50;99.90;;;;;;5069695;28;20025;-68
2022/07/06 01:27:13;;;;;;;7.30;2.17;;;14.50;99.90;;;;;;5069312;28;20611;-68
2022/07/06 01:29:39;;;;;;;3.67;2.13;;;14.40;99.90;;;;;;5071047;28;20028;-68
2022/07/06 01:32:05;;;;;;;7.97;2.47;;;14.40;99.90;;;;;;5070808;28;20021;-68
2022/07/06 01:34:30;;;;;;;3.97;2.10;;;14.40;99.90;;;;;;5071003;28;20028;-69
2022/07/06 01:36:56;;;;;;;6.38;2.72;;;14.30;99.90;;;;;;5065635;28;20024;-68
2022/07/06 01:39:21;;;;;;;2.67;1.90;;;14.20;99.90;;;;;;5050730;28;20040;-68
2022/07/06 01:41:47;;;;;;;6.43;2.72;;;14.30;99.90;;;;;;5050665;28;20434;-68
2022/07/06 01:44:13;;;;;;;11.15;2.35;;;14.20;99.90;;;;;;5050563;28;20509;-68
2022/07/06 01:46:39;;;;;;;4.20;1.90;;;14.10;99.90;;;;;;5050850;28;20029;-68
2022/07/06 01:49:04;;;;;;;4.05;2.38;;;14.00;99.90;;;;;;5051017;28;20074;-68
2022/07/06 01:51:30;;;;;;;4.55;2.13;;;14.00;99.90;;;;;;5051022;28;20100;-68
2022/07/06 01:53:57;;;;;;;4.15;2.40;;;13.90;99.90;;;;;;5062955;28;20495;-68
2022/07/06 01:56:23;;;;;;;9.00;2.50;;;13.90;99.90;;;;;;5070735;28;20092;-68
2022/07/06 01:58:49;;;;;;;7.18;2.38;;;13.90;99.90;;;;;;5070039;28;20043;-68
2022/07/06 02:01:17;;;;;;;6.93;2.42;;;13.90;99.90;;;;;;5068902;28;20535;-68
2022/07/06 02:03:43;;;;;;;5.72;2.47;;;13.80;99.90;;;;;;5070971;28;20048;-68
2022/07/06 02:06:09;;;;;;;11.75;3.03;;;13.80;99.90;;;;;;5070579;28;20112;-68
2022/07/06 02:08:35;;;;;;;6.93;2.58;;;13.80;99.90;;;;;;5051599;28;20057;-68
2022/07/06 02:11:05;;;;;;;3.28;2.55;;;13.80;99.90;;;;;;5050454;28;20060;-68
2022/07/06 02:13:31;;;;;;;2.97;2.00;;;13.80;99.90;;;;;;5032655;28;20384;-68
2022/07/06 02:15:56;;;;;;;6.68;2.67;;;13.80;99.90;;;;;;5050586;28;20028;-68
2022/07/06 02:18:22;;;;;;;2.53;2.00;;;13.80;99.90;;;;;;5050240;28;20064;-68
2022/07/06 02:20:47;;;;;;;2.15;1.95;;;13.80;99.90;;;;;;5050399;28;20032;-68
2022/07/06 02:23:13;;;;;;;3.25;2.33;;;13.70;99.90;;;;;;5067577;28;20040;-68
2022/07/06 02:25:39;;;;;;;3.13;2.08;;;13.70;99.90;;;;;;5070399;28;20483;-68
2022/07/06 02:28:04;;;;;;;4.35;2.08;;;13.70;99.90;;;;;;5052495;28;20478;-68
2022/07/06 02:30:30;;;;;;;7.22;1.80;;;13.70;99.90;;;;;;5070421;28;20020;-68
2022/07/06 02:32:56;;;;;;;9.48;2.92;;;13.60;99.90;;;;;;5069859;28;20028;-67
2022/07/06 02:35:21;;;;;;;7.97;2.25;;;13.60;99.90;;;;;;5066270;28;20028;-67
2022/07/06 02:37:47;;;;;;;6.82;2.40;;;13.60;99.90;;;;;;5050198;28;20021;-66
2022/07/06 02:40:12;;;;;;;5.20;2.80;;;13.50;99.90;;;;;;5050186;28;20021;-66
2022/07/06 02:42:38;;;;;;;6.85;2.55;;;13.50;99.90;;;;;;5049840;28;20422;-67
2022/07/06 02:45:04;;;;;;;7.60;2.53;;;13.40;99.90;;;;;;5049946;28;20091;-66
2022/07/06 02:47:29;;;;;;;3.97;2.10;;;13.30;99.90;;;;;;5050038;28;20037;-67
2022/07/06 02:49:55;;;;;;;4.85;2.15;;;13.40;99.90;;;;;;5033223;28;20040;-67
2022/07/06 02:52:21;;;;;;;4.07;2.63;;;13.30;99.90;;;;;;5050363;28;20061;-67
2022/07/06 02:54:46;;;;;;;4.03;2.03;;;13.10;99.90;;;;;;5055486;28;20059;-66
2022/07/06 02:57:12;;;;;;;2.97;1.75;;;13.00;99.90;;;;;;5056832;28;20025;-66
2022/07/06 02:59:37;;;;;;;3.65;2.60;;;12.90;99.90;;;;;;5050149;28;20471;-66
2022/07/06 03:02:04;;;;;;;4.95;1.90;;;12.90;99.90;;;;;;5050227;28;20021;-66
2022/07/06 03:04:30;;;;;;;3.08;2.08;;;12.80;99.90;;;;;;5049657;28;20033;-67
2022/07/06 03:06:55;;;;;;;5.68;2.50;;;12.80;99.90;;;;;;5051416;28;20031;-67
2022/07/06 03:09:21;;;;;;;5.05;2.30;;;12.70;99.90;;;;;;5058039;28;20067;-67
2022/07/06 03:11:46;;;;;;;3.55;2.45;;;12.70;99.90;;;;;;5053257;28;20455;-66
2022/07/06 03:14:12;;;;;;;4.55;2.33;;;12.70;99.90;;;;;;5053572;28;20075;-66
2022/07/06 03:16:38;;;;;;;9.70;2.63;;;12.50;99.90;;;;;;5053303;28;20079;-67
2022/07/06 03:19:03;;;;;;;3.70;2.53;;;12.30;99.90;;;;;;5053561;28;20130;-67
2022/07/06 03:21:29;;;;;;;11.80;2.05;;;12.10;99.90;;;;;;5064562;28;20040;-66
2022/07/06 03:23:54;;;;;;;7.90;2.35;;;12.20;99.90;;;;;;5055851;28;20029;-67
2022/07/06 03:26:20;;;;;;;2.53;2.20;;;11.90;99.90;;;;;;5073477;28;20033;-67
2022/07/06 03:28:45;;;;;;;6.13;2.70;;;11.90;99.90;;;;;;5072025;28;20024;-67
2022/07/06 03:31:11;;;;;;;8.15;2.95;;;11.80;99.90;;;;;;5053141;28;20071;-67
2022/07/06 03:33:36;;;;;;;9.07;2.97;;;11.70;99.90;;;;;;5053378;28;20021;-67
2022/07/06 03:36:02;;;;;;;15.43;3.17;;;11.70;99.90;;;;;;5061064;28;20371;-67
2022/07/06 03:38:28;;;;;;;4.72;2.55;;;11.60;99.90;;;;;;5073247;28;20024;-66
2022/07/06 03:40:53;;;;;;;5.15;2.60;;;11.60;99.90;;;;;;5072764;28;20021;-66
2022/07/06 03:43:19;;;;;;;4.72;2.65;;;11.70;99.90;;;;;;5073318;28;20032;-67
2022/07/06 03:45:44;;;;;;;7.03;2.80;;;11.70;99.90;;;;;;5072577;28;20028;-66
2022/07/06 03:48:10;;;;;;;7.55;3.22;;;11.70;99.90;;;;;;5072948;28;20029;-66
2022/07/06 03:50:36;;;;;;;5.07;3.13;;;11.60;99.90;;;;;;5056712;28;20120;-67
2022/07/06 03:53:01;;;;;;;8.93;3.53;;;11.40;99.90;;;;;;5052744;28;20060;-67
2022/07/06 03:55:27;;;;;;;4.63;3.30;;;11.50;99.90;;;;;;5052906;28;20021;-66
2022/07/06 03:57:52;;;;;;;4.85;2.67;;;11.70;99.90;;;;;;5052873;28;20497;-66
2022/07/06 04:00:18;;;;;;;10.98;3.45;;;11.70;99.90;;;;;;5052963;28;20037;-66
2022/07/06 04:02:43;;;;;;;6.55;3.35;;;11.60;99.90;;;;;;5052510;28;20372;-67
2022/07/06 04:05:09;;;;;;;7.35;3.13;;;11.60;99.90;;;;;;5056384;28;20103;-67
2022/07/06 04:07:35;;;;;;;5.13;3.00;;;11.70;99.90;;;;;;5084599;22;20083;-63
2022/07/06 04:10:00;;;;;;;5.22;3.28;;;11.70;99.90;;;;;;5071999;28;20051;-64
2022/07/06 04:12:26;;;;;;;8.85;3.15;;;11.80;99.90;;;;;;5072023;28;20477;-63
2022/07/06 04:14:51;;;;;;;7.22;3.60;;;11.70;99.90;;;;;;5071578;28;20020;-63
2022/07/06 04:20:02;;;;;;;10.05;4.07;;;11.90;99.90;;;;;;5051957;28;20039;-63
2022/07/06 04:22:27;;;;;;;14.85;3.60;;;12.10;99.90;;;;;;5051320;28;20107;-63
2022/07/06 04:24:53;;;;;;;5.22;3.40;;;12.20;99.90;;;;;;5052116;28;20554;-63
2022/07/06 04:27:18;;;;;;;7.40;3.53;;;12.20;99.90;;;;;;5051860;28;20033;-63
2022/07/06 04:29:44;;;;;;;14.65;3.88;;;12.30;99.90;;;;;;5051891;28;20024;-63
2022/07/06 04:32:09;;;;;;;5.50;3.63;;;12.30;99.90;;;;;;5051521;28;20025;-62
2022/07/06 04:34:35;;;;;;;8.10;3.20;;;12.20;99.90;;;;;;5090811;28;20393;-63
2022/07/06 04:37:00;;;;;;;4.68;3.63;;;12.30;99.90;;;;;;5091916;28;20027;-63
2022/07/06 04:39:26;;;;;;;6.85;3.38;;;12.30;99.90;;;;;;5091911;28;20024;-63
2022/07/06 04:41:52;;;;;;;6.63;3.88;;;12.30;99.90;;;;;;5091579;28;20039;-63
2022/07/06 04:44:17;;;;;;;10.52;3.90;;;12.30;99.90;;;;;;5091622;28;20689;-63
2022/07/06 04:46:43;;;;;;;9.90;3.40;;;12.30;99.90;;;;;;5086916;28;20028;-63
2022/07/06 04:49:08;;;;;;;7.15;3.95;;;12.40;99.90;;;;;;5071362;28;20440;-62
2022/07/06 04:51:34;;;;;;;8.45;3.72;;;12.40;99.90;;;;;;5071210;28;20725;-63
2022/07/06 04:53:59;;;;;;;9.43;4.47;;;12.50;99.90;;;;;;5072383;28;20029;-64
2022/07/06 04:56:25;;;;;;;9.68;4.35;;;12.50;99.90;;;;;;5070762;28;20031;-64
2022/07/06 04:58:50;;;;;;;20.20;4.45;;;12.50;99.90;;;;;;5071124;28;20029;-64
2022/07/06 05:01:16;;;;;;;14.05;4.10;;;12.50;99.90;;;;;;5071225;28;20021;-63
2022/07/06 05:03:41;;;;;;;8.73;4.05;;;12.60;99.90;;;;;;5070987;28;20028;-64
2022/07/06 05:06:07;;;;;;;7.40;4.10;;;12.60;99.90;;;;;;5071042;28;20372;-63
2022/07/06 05:08:33;;;;;;;9.30;4.47;;;12.60;99.90;;;;;;5071611;28;20028;-64
2022/07/06 05:10:59;;;;;;;7.95;3.95;;;12.60;99.90;;;;;;5070651;28;20035;-64
2022/07/06 05:13:25;;;;;;;14.05;4.53;;;12.70;99.90;;;;;;5070132;28;20108;-64
2022/07/06 05:15:51;;;;;;;5.50;4.13;;;12.70;99.90;;;;;;5070889;28;20878;-64
2022/07/06 05:18:16;;;;;;;8.93;4.35;;;12.80;99.90;;;;;;5070845;28;20478;-64
2022/07/06 05:20:42;;;;;;;7.00;4.00;;;12.90;99.90;;;;;;5071145;28;20377;-64
2022/07/06 05:23:08;;;;;;;8.52;4.00;;;12.90;99.90;;;;;;5071872;28;20512;-64
2022/07/06 05:25:33;;;;;;;11.20;4.78;;;13.00;99.90;;;;;;5071024;28;20037;-64
2022/07/06 05:27:59;;;;;;;8.10;4.07;;;13.10;99.90;;;;;;5074864;28;20024;-63
2022/07/06 05:30:26;;;;;;;10.45;4.22;;;13.10;99.90;;;;;;5088623;28;20024;-64
2022/07/06 05:32:51;;;;;;;7.05;4.15;;;13.20;99.90;;;;;;5051096;28;20021;-64
2022/07/06 05:35:17;;;;;;;12.80;4.18;;;13.20;99.90;;;;;;5050565;28;20461;-64
2022/07/06 05:37:43;;;;;;;10.77;4.45;;;13.30;99.90;;;;;;5074019;28;20483;-64
2022/07/06 05:40:09;;;;;;;7.70;3.63;;;13.40;99.90;;;;;;5090827;28;20111;-64
2022/07/06 05:42:35;;;;;;;10.80;3.78;;;13.50;99.90;;;;;;5090425;28;20071;-64
2022/07/06 05:45:00;;;;;;;12.30;4.40;;;13.50;99.90;;;;;;5090801;28;20059;-64
2022/07/06 05:50:14;;;;;;;7.97;3.58;;;13.60;99.90;;;;;;5070042;28;20471;-64
2022/07/06 05:52:44;;;;;;;8.23;3.30;;;13.60;99.90;;;;;;5070117;28;20104;-64
2022/07/06 05:55:11;;;;;;;5.63;2.78;;;13.70;99.90;;;;;;5070360;28;20391;-64
2022/07/06 05:57:38;;;;;;;7.20;3.58;;;13.70;99.90;;;;;;5069961;28;20025;-63
2022/07/06 06:00:07;;;;;;;9.20;3.33;;;13.70;99.90;;;;;;5070956;28;20039;-64
2022/07/06 06:02:40;;;;;;;5.75;2.90;;;13.80;99.90;;;;;;5071572;28;20032;-64
2022/07/06 06:05:07;;;;;;;6.65;2.83;;;13.90;99.90;;;;;;5070491;28;20031;-63
2022/07/06 06:07:35;;;;;;;6.30;2.20;;;14.00;99.90;;;;;;5070248;28;20395;-64
2022/07/06 06:10:01;;;;;;;10.50;2.55;;;14.10;99.90;;;;;;5070213;28;20031;-64
2022/07/06 06:12:26;;;;;;;3.83;2.20;;;14.10;99.90;;;;;;5070191;28;20185;-64
2022/07/06 06:14:52;;;;;;;7.68;2.45;;;14.20;99.90;;;;;;5070224;28;20107;-64
2022/07/06 06:17:17;;;;;;;6.28;1.77;;;14.30;99.90;;;;;;5082756;28;20031;-64
2022/07/06 06:19:43;;;;;;;3.67;2.03;;;14.30;99.90;;;;;;5090172;28;20024;-64
2022/07/06 06:22:09;;;;;;;3.58;2.10;;;14.40;99.90;;;;;;5089826;28;20016;-64
2022/07/06 06:24:34;;;;;;;7.03;1.58;;;14.50;99.90;;;;;;5090392;28;20035;-63
2022/07/06 06:27:00;;;;;;;7.53;1.85;;;14.60;99.90;;;;;;5089807;28;20066;-64
2022/07/06 06:29:25;;;;;;;2.88;1.63;;;14.70;99.90;;;;;;5090191;28;20028;-64
2022/07/06 06:31:51;;;;;;;11.02;2.53;;;14.80;99.90;;;;;;5072326;28;20173;-64
2022/07/06 06:34:16;;;;;;;10.68;2.08;;;14.90;99.90;;;;;;5071579;28;20028;-63
2022/07/06 06:36:42;;;;;;;4.40;1.80;;;14.90;99.90;;;;;;5069771;28;20103;-64
2022/07/06 06:39:07;;;;;;;10.73;1.63;;;15.00;99.90;;;;;;5069151;28;20052;-64
2022/07/06 06:41:33;;;;;;;3.75;1.85;;;15.00;99.90;;;;;;5069469;28;20047;-64
2022/07/06 06:43:58;;;;;;;7.40;1.98;;;15.10;99.90;;;;;;5070541;28;20039;-63
2022/07/06 06:46:24;;;;;;;2.38;1.45;;;15.10;99.90;;;;;;5096248;28;20024;-64
2022/07/06 06:48:49;;;;;;;6.00;1.42;;;15.20;99.90;;;;;;5096556;28;20089;-63
2022/07/06 06:51:15;;;;;;;4.72;1.50;;;15.40;99.90;;;;;;5080765;28;20078;-64
2022/07/06 06:53:40;;;;;;;7.47;1.60;;;15.40;99.90;;;;;;5075957;28;20390;-64
2022/07/06 06:56:07;;;;;;;2.67;1.13;;;15.40;99.90;;;;;;5077375;28;20123;-64
2022/07/06 06:58:32;;;;;;;5.20;1.58;;;15.50;99.90;;;;;;5076291;28;20033;-64
2022/07/06 07:00:59;;;;;;;2.67;1.30;;;15.60;99.90;;;;;;5076228;28;20547;-63
2022/07/06 07:03:24;;;;;;;3.83;1.30;;;15.70;99.90;;;;;;5075764;28;20025;-64
2022/07/06 07:05:50;;;;;;;2.30;0.98;;;15.90;99.90;;;;;;5076737;28;20146;-65
2022/07/06 07:08:15;;;;;;;5.28;1.52;;;16.00;99.90;;;;;;5079818;28;20032;-64
2022/07/06 07:10:41;;;;;;;4.43;1.60;;;16.10;99.90;;;;;;5096462;28;20028;-64
2022/07/06 07:13:07;;;;;;;3.17;1.40;;;16.30;99.90;;;;;;5096106;28;20020;-64
2022/07/06 07:15:32;;;;;;;4.13;1.60;;;16.30;99.90;;;;;;5088676;28;20025;-64
2022/07/06 07:17:58;;;;;;;7.50;1.75;;;16.20;99.90;;;;;;5076134;28;20046;-64
2022/07/06 07:20:23;;;;;;;10.30;1.42;;;16.20;99.90;;;;;;5076174;28;20029;-64
2022/07/06 07:22:49;;;;;;;2.47;1.23;;;16.20;99.90;;;;;;5078274;28;20131;-65
2022/07/06 07:25:14;;;;;;;7.80;1.50;;;16.30;99.90;;;;;;5096242;28;20089;-64
2022/07/06 07:27:40;;;;;;;3.88;1.20;;;16.30;99.90;;;;;;5096568;28;20024;-64
2022/07/06 07:30:07;;;;;;;2.20;0.95;;;16.30;99.90;;;;;;5085113;28;20102;-64
2022/07/06 07:32:32;;;;;;;10.18;1.88;;;16.30;99.90;;;;;;5056220;28;20399;-64
2022/07/06 07:34:58;;;;;;;1.42;1.08;;;16.30;99.90;;;;;;5055810;28;20017;-64
2022/07/06 07:37:23;;;;;;;9.02;1.80;;;16.20;99.90;;;;;;5072956;28;20043;-64
2022/07/06 07:39:49;;;;;;;6.25;1.95;;;16.20;99.90;;;;;;5096569;28;20036;-65
2022/07/06 07:42:14;;;;;;;2.78;1.60;;;16.30;99.90;;;;;;5096181;28;20024;-64
2022/07/06 07:44:40;;;;;;;11.73;1.98;;;16.50;99.90;;;;;;5096035;28;20055;-64
2022/07/06 07:47:06;;;;;;;2.10;1.58;;;16.60;99.90;;;;;;5096330;28;20103;-65
2022/07/06 07:49:32;;;;;;;4.90;1.50;;;16.70;99.90;;;;;;5096093;28;20020;-62
2022/07/06 07:51:57;;;;;;;5.03;2.08;;;16.70;99.90;;;;;;5092547;28;20032;-64
2022/07/06 07:54:23;;;;;;;5.43;1.80;;;16.70;99.90;;;;;;5085576;28;20111;-65
2022/07/06 07:56:49;;;;;;;5.72;1.67;;;16.60;99.90;;;;;;5072679;28;20029;-65
2022/07/06 07:59:14;;;;;;;3.50;1.23;;;16.60;99.90;;;;;;5072668;28;20039;-64
2022/07/06 08:01:40;;;;;;;5.32;1.60;;;16.60;99.90;;;;;;5072683;28;20115;-64
2022/07/06 08:04:06;;;;;;;7.55;1.70;;;16.60;99.90;;;;;;5072875;28;20489;-65
2022/07/06 08:06:31;;;;;;;10.93;1.58;;;16.50;99.90;;;;;;5084913;28;20111;-64
2022/07/06 08:08:57;;;;;;;7.38;1.40;;;16.40;99.90;;;;;;5093005;28;20032;-65
2022/07/06 08:11:22;;;;;;;7.63;1.25;;;16.40;99.90;;;;;;5092776;28;20032;-65
2022/07/06 08:13:48;;;;;;;3.55;0.90;;;16.50;99.90;;;;;;5092844;28;20029;-65
2022/07/06 08:16:14;;;;;;;6.57;1.17;;;16.50;99.90;;;;;;5092937;28;20474;-63
2022/07/06 08:18:40;;;;;;;1.67;0.90;;;16.50;99.90;;;;;;5092848;28;20436;-64
2022/07/06 08:21:05;;;;;;;1.30;0.98;;;16.50;99.90;;;;;;5081505;28;20035;-63
2022/07/06 08:23:31;;;;;;;3.28;1.00;;;16.50;99.90;;;;;;5072466;28;20021;-65
2022/07/06 08:25:56;;;;;;;2.70;1.10;;;16.40;99.90;;;;;;5072239;28;20033;-64
2022/07/06 08:28:22;;;;;;;2.97;1.10;;;16.30;99.90;;;;;;5072266;28;20036;-65
2022/07/06 08:30:48;;;;;;;3.92;1.10;;;16.30;99.90;;;;;;5072246;28;20043;-65
2022/07/06 08:33:14;;;;;;;0.85;0.82;;;16.40;99.90;;;;;;5071916;28;20028;-64
2022/07/06 08:35:39;;;;;;;3.40;1.17;;;16.50;99.90;;;;;;5088523;28;20110;-65
2022/07/06 08:38:05;;;;;;;4.40;1.02;;;16.60;99.90;;;;;;5092360;28;20103;-65
2022/07/06 08:40:34;;;;;;;3.25;1.10;;;16.60;99.90;;;;;;5092405;28;20058;-65
2022/07/06 08:43:00;;;;;;;2.20;0.75;;;16.60;99.90;;;;;;5091949;28;20098;-65
2022/07/06 08:45:27;;;;;;;6.78;1.10;;;16.50;99.90;;;;;;5092297;28;20051;-65
2022/07/06 08:47:54;;;;;;;3.67;1.58;;;16.60;99.90;;;;;;5092226;28;20402;-64
2022/07/06 08:50:23;;;;;;;3.30;0.90;;;16.60;99.90;;;;;;5090309;28;20031;-65
2022/07/06 08:52:49;;;;;;;4.35;0.70;;;16.60;99.90;;;;;;5091921;28;20470;-65
2022/07/06 08:55:16;;;;;;;1.67;0.75;;;16.70;99.90;;;;;;5090342;28;20043;-65
2022/07/06 08:57:44;;;;;;;3.70;0.70;;;16.80;99.90;;;;;;5091560;28;20462;-64
2022/07/06 09:00:11;;;;;;;1.63;0.80;;;16.80;99.90;;;;;;5091993;28;20482;-65
2022/07/06 09:02:37;;;;;;;2.42;0.95;;;16.80;99.90;;;;;;5091465;28;20107;-65
2022/07/06 09:05:03;;;;;;;0.95;0.90;;;16.90;99.90;;;;;;5091815;28;20474;-65
2022/07/06 09:07:29;;;;;;;3.13;0.88;;;16.90;99.90;;;;;;5081844;28;20033;-64
2022/07/06 09:09:57;;;;;;;2.50;0.93;;;17.00;99.90;;;;;;5087633;28;20032;-64
2022/07/06 09:12:26;;;;;;;1.10;0.75;;;17.10;99.90;;;;;;5091482;28;20386;-64
2022/07/06 09:14:57;;;;;;;4.32;1.38;;;17.20;99.90;;;;;;5091745;28;20027;-64
2022/07/06 09:17:29;;;;;;;1.70;0.73;;;17.20;99.90;;;;;;5091488;28;20024;-65
2022/07/06 09:19:56;;;;;;;2.72;0.60;;;17.20;99.90;;;;;;5091675;28;20059;-64
2022/07/06 09:22:33;;;;;;;1.38;0.60;;;17.30;99.90;;;;;;5090865;28;20334;-65
2022/07/06 09:25:07;;;;;;;1.80;0.90;;;17.30;99.90;;;;;;5071933;28;20032;-64
2022/07/06 09:27:40;;;;;;;2.45;0.85;;;17.10;99.90;;;;;;5071070;28;20020;-65
2022/07/06 09:30:07;;;;;;;1.15;0.70;;;17.20;99.90;;;;;;5071201;28;20040;-65
2022/07/06 09:32:45;;;;;;;1.95;0.70;;;17.20;99.90;;;;;;5067571;28;20564;-65
2022/07/06 09:35:24;;;;;;;2.03;1.10;;;17.10;99.90;;;;;;5091156;28;20032;-65
2022/07/06 09:38:04;;;;;;;6.13;0.70;;;17.20;99.90;;;;;;5091264;28;20020;-64
2022/07/06 09:40:34;;;;;;;3.45;0.63;;;17.20;99.90;;;;;;5092771;28;20115;-64
2022/07/06 09:43:14;;;;;;;3.03;0.85;;;17.10;99.90;;;;;;5092289;28;20094;-65
2022/07/06 09:45:43;;;;;;;4.20;0.70;;;17.20;99.90;;;;;;5092406;28;20524;-65
2022/07/06 09:48:10;;;;;;;1.27;0.80;;;17.30;99.90;;;;;;5080209;28;20434;-65
2022/07/06 09:50:44;;;;;;;5.57;0.68;;;17.40;99.90;;;;;;5072038;28;20467;-65
2022/07/06 09:53:11;;;;;;;3.10;0.98;;;17.60;99.90;;;;;;5071739;28;20025;-65
2022/07/06 09:55:37;;;;;;;1.52;0.80;;;17.60;99.90;;;;;;5072033;28;20036;-65
2022/07/06 09:58:04;;;;;;;5.15;0.98;;;17.50;99.90;;;;;;5070924;28;20024;-65
2022/07/06 10:00:30;;;;;;;2.28;0.80;;;17.40;99.90;;;;;;5070527;28;20028;-65
2022/07/06 10:02:56;;;;;;;2.05;0.90;;;17.50;99.90;;;;;;5072054;28;20039;-63
2022/07/06 10:05:29;;;;;;;1.88;0.90;;;17.60;99.90;;;;;;5070280;28;20418;-65
2022/07/06 10:07:57;;;;;;;6.00;0.90;;;17.60;99.90;;;;;;5102048;22;20040;-59
2022/07/06 10:10:26;;;;;;;1.92;0.70;;;17.70;99.90;;;;;;5060780;28;20025;-59
2022/07/06 10:12:53;;;;;;;1.73;0.80;;;17.70;99.90;;;;;;5068420;28;20024;-58
2022/07/06 10:15:21;;;;;;;4.93;0.70;;;18.10;99.90;;;;;;5070071;28;20022;-58
2022/07/06 10:17:49;;;;;;;5.35;1.05;;;18.20;99.90;;;;;;5050238;28;20407;-58
2022/07/06 10:20:15;;;;;;;3.60;1.02;;;18.10;99.90;;;;;;5049899;28;20487;-56
2022/07/06 10:22:41;;;;;;;5.50;1.05;;;18.60;99.90;;;;;;5049589;28;20070;-59
2022/07/06 10:25:07;;;;;;;2.67;0.95;;;18.90;99.90;;;;;;5050684;28;20112;-59
2022/07/06 10:27:35;;;;;;;7.00;1.48;;;19.20;99.90;;;;;;5049786;28;20025;-60
2022/07/06 10:30:01;;;;;;;5.63;0.98;;;19.20;99.90;;;;;;5050641;28;20031;-60
2022/07/06 10:32:28;;;;;;;3.25;0.88;;;19.00;99.90;;;;;;5068611;28;20032;-60
2022/07/06 10:34:53;;;;;;;2.67;0.85;;;19.40;99.90;;;;;;5070455;28;20028;-60
2022/07/06 10:37:27;;;;;;;2.17;0.93;;;19.60;99.90;;;;;;5070255;28;20437;-59
2022/07/06 10:42:45;;;;;;;8.10;1.17;;;19.60;99.90;;;;;;5070562;28;20031;-60
2022/07/06 10:45:12;;;;;;;;;;;19.70;99.90;;;;;;5060198;28;20033;-60
2022/07/06 10:47:39;;;;;;;2.67;0.80;;;19.90;99.90;;;;;;5050148;28;19999;-61
2022/07/06 10:50:05;;;;;;;0.70;0.70;;;20.00;99.90;;;;;;5049988;28;20056;-60
2022/07/06 10:52:49;;;;;;;3.55;0.82;;;20.20;99.90;;;;;;5050246;28;20105;-60
2022/07/06 10:55:31;;;;;;;2.10;0.68;;;19.80;99.90;;;;;;5051075;28;20069;-61
2022/07/06 10:57:56;;;;;;;4.07;0.90;;;19.50;99.90;;;;;;5049912;28;20491;-60
2022/07/06 11:00:22;;;;;;;3.42;0.90;;;19.70;99.90;;;;;;5050001;28;20060;-60
2022/07/06 11:02:47;;;;;;;4.22;1.35;;;19.70;99.90;;;;;;5049953;28;20028;-60
2022/07/06 11:05:39;;;;;;;4.68;1.00;;;19.90;99.90;;;;;;5062047;28;20116;-60
2022/07/06 11:08:05;;;;;;;2.00;1.20;;;20.00;99.90;;;;;;5069734;28;20696;-59
2022/07/06 11:10:47;;;;;;;3.53;1.25;;;20.20;99.90;;;;;;5069386;28;20035;-60
2022/07/06 11:13:28;;;;;;;1.10;0.70;;;20.50;99.90;;;;;;5069616;28;20032;-60
2022/07/06 11:16:02;;;;;;;4.95;1.10;;;20.80;99.90;;;;;;5069572;28;20020;-61
2022/07/06 11:18:38;;;;;;;3.83;0.90;;;20.70;99.90;;;;;;5062463;28;20025;-60
2022/07/06 11:21:17;;;;;;;1.73;0.85;;;20.80;99.90;;;;;;5049711;28;20377;-60
2022/07/06 11:23:45;;;;;;;4.30;0.85;;;20.40;99.90;;;;;;5051744;28;20383;-60
2022/07/06 11:26:11;;;;;;;1.55;0.90;;;20.10;99.90;;;;;;5069692;28;20036;-60
2022/07/06 11:28:37;;;;;;;1.58;0.93;;;20.00;99.90;;;;;;5069464;28;20067;-60
2022/07/06 11:31:03;;;;;;;2.58;0.70;;;20.20;99.90;;;;;;5066953;28;20506;-60
2022/07/06 11:33:30;;;;;;;3.08;0.90;;;20.30;99.90;;;;;;5072849;28;20028;-59
2022/07/06 11:36:14;;;;;;;3.17;0.98;;;20.30;99.90;;;;;;5072958;28;20033;-59
2022/07/06 11:38:41;;;;;;;3.05;1.02;;;20.60;99.90;;;;;;5073368;28;20051;-60
2022/07/06 11:41:07;;;;;;;7.20;1.08;;;20.60;99.90;;;;;;5073175;28;20113;-59
2022/07/06 11:43:32;;;;;;;3.00;0.80;;;20.70;99.90;;;;;;5056440;28;20071;-59
2022/07/06 11:45:58;;;;;;;3.60;1.05;;;20.80;99.90;;;;;;5054077;28;20051;-60
2022/07/06 11:48:24;;;;;;;2.25;1.08;;;20.80;99.90;;;;;;5052825;28;20033;-59
2022/07/06 11:51:03;;;;;;;3.33;1.00;;;20.40;99.90;;;;;;5056019;28;20025;-59
2022/07/06 11:53:29;;;;;;;0.93;0.60;;;20.50;99.90;;;;;;5071867;28;20020;-58
2022/07/06 11:55:55;;;;;;;1.58;0.60;;;20.30;99.90;;;;;;5065019;28;20388;-60
2022/07/06 11:58:23;;;;;;;4.05;0.70;;;20.30;99.90;;;;;;5052853;28;20025;-59
2022/07/06 12:01:07;;;;;;;6.72;1.08;;;20.30;99.90;;;;;;5052982;28;20124;-60
2022/07/06 12:03:34;;;;;;;3.55;0.75;;;20.20;99.90;;;;;;5051690;28;20032;-58
2022/07/06 12:06:01;;;;;;;1.02;0.65;;;20.20;99.90;;;;;;5058039;28;20071;-59
2022/07/06 12:08:26;;;;;;;1.65;0.70;;;20.00;99.90;;;;;;5062151;28;20648;-56
2022/07/06 12:10:52;;;;;;;2.45;0.75;;;20.00;99.90;;;;;;5052776;28;20029;-58
2022/07/06 12:13:18;;;;;;;2.47;0.82;;;20.00;99.90;;;;;;5052409;28;20044;-59
2022/07/06 12:15:44;;;;;;;2.90;0.80;;;20.20;99.90;;;;;;5052518;28;20029;-60
2022/07/06 12:18:10;;;;;;;2.05;0.70;;;20.30;99.90;;;;;;5052659;28;20476;-57
2022/07/06 12:20:36;;;;;;;3.20;0.90;;;20.50;99.90;;;;;;5064927;28;20039;-58
2022/07/06 12:23:05;;;;;;;5.78;0.80;;;20.70;99.90;;;;;;5072363;28;21110;-58
2022/07/06 12:25:36;;;;;;;3.13;0.88;;;20.90;99.90;;;;;;5070770;28;20043;-60
2022/07/06 12:28:02;;;;;;;2.95;0.80;;;21.10;99.90;;;;;;5072331;28;20395;-60
2022/07/06 12:30:28;;;;;;;2.80;0.90;;;21.20;99.90;;;;;;5072279;28;20119;-58
2022/07/06 12:33:13;;;;;;;3.80;1.23;;;20.90;99.90;;;;;;5072260;28;20159;-58
2022/07/06 12:35:38;;;;;;;4.40;1.08;;;20.80;99.90;;;;;;5070640;28;20012;-59
2022/07/06 12:38:04;;;;;;;9.23;1.10;;;20.80;99.90;;;;;;5055787;28;20387;-58
2022/07/06 12:40:30;;;;;;;3.00;0.85;;;20.80;99.90;;;;;;5052671;28;20040;-57
2022/07/06 12:42:55;;;;;;;5.43;0.95;;;20.60;99.90;;;;;;5050799;28;20032;-57
2022/07/06 12:45:30;;;;;;;6.32;1.33;;;20.70;99.90;;;;;;5052088;28;20479;-59
2022/07/06 12:48:03;;;;;;;4.25;0.90;;;20.70;99.90;;;;;;5052153;28;20025;-58
2022/07/06 12:50:36;;;;;;;5.68;0.77;;;20.90;99.90;;;;;;5052309;28;20047;-58
2022/07/06 12:53:04;;;;;;;4.82;1.58;;;21.20;99.90;;;;;;5068902;28;20087;-59